Main page
METAR-TAF:

METAR-TAF

Airports :

Damascus International Airport

Damascus, Syria

latitude: 33-25N, longitude: 036-31E, elevation: 608 m

Current weather observation

The report was made 44 minutes ago, at 06:00 UTC
Wind 12 kt from the Southwest
Temperature 24°C
Humidity 61%
Pressure 1009 hPa
Visibility 10 km or more
no clouds below 1500 m and no cumulonimbus

METAR: OSDI 180600Z 22012KT CAVOK 24/16 Q1009

Time: 09:44 (06:44 UTC)

Forecast

The report was made 2 hours and 44 minutes ago, at 04:00 UTC
Forecast valid from 18 at 06 UTC to 19 at 12 UTC
Wind 10 kt from the Southwest
Visibility 10 km or more
no clouds below 1500 m and no cumulonimbus
Temporary
from 18 at 12 UTC to 18 at 18 UTC
Wind 15 kt from the West/Southwest with gusts up to 25 kt
Visibility 10 km or more
Few clouds at a height of 3000 ft

TAF: OSDI 180400Z 1806/1912 22010KT CAVOK TEMPO 1812/1818 24015G25KT 9999 FEW030

Weather observations and forecasts of more than 4000 airports (METAR and TAF reports).

The available stations are represented by yellow and red dots on the map.

Hover mouse over dot to see the name of the station.

Then click to see weather observations and forecasts.

To change the map : click on the green buttons with a black cross to zoom in, on the green button with a dash to zoom out, or on the green arrows for adjacent maps.


METAR-TAF: